Time;durP1;ratioP1;P1;durP2;ratioP2;P2;SDS_P1;SDS_P2;PMS_P1;PMS_P2;Temp;Humidity;BMP_temperature;BMP_pressure;BME280_temperature;BME280_humidity;BME280_pressure;Samples;Min_cycle;Max_cycle;Signal;HPM_P1;HPM_P2
2022/12/15 00:38:58;;;;;;;10.10;9.90;;;6.50;99.90;;;;;;4257651;28;20050;-88
2022/12/15 00:41:23;;;;;;;9.27;9.18;;;6.60;99.90;;;;;;4257723;28;20046;-88
2022/12/15 00:43:43;;;;;;;9.70;9.40;;;6.50;99.90;;;;;;4241214;28;20294;-88
2022/12/15 00:48:44;;;;;;;9.13;8.93;;;6.50;99.90;;;;;;4257002;28;20103;-88
2022/12/15 00:51:04;;;;;;;10.20;9.82;;;6.40;99.90;;;;;;4241999;28;20042;-88
2022/12/15 01:22:25;;;;;;;10.98;10.57;;;6.30;99.90;;;;;;4256844;28;20061;-88
2022/12/15 01:24:45;;;;;;;11.57;11.07;;;6.40;99.90;;;;;;4255896;28;20042;-88
2022/12/15 01:27:05;;;;;;;10.13;9.77;;;6.40;99.90;;;;;;4241704;28;20069;-88
2022/12/15 01:29:25;;;;;;;12.57;11.93;;;6.40;99.90;;;;;;4240877;28;20050;-88
2022/12/15 01:31:44;;;;;;;14.98;14.07;;;6.40;99.90;;;;;;4241451;28;20081;-88
2022/12/15 01:34:09;;;;;;;14.70;14.07;;;6.30;99.90;;;;;;4256574;28;20091;-88
2022/12/15 01:36:29;;;;;;;13.77;13.18;;;6.40;99.90;;;;;;4241217;28;20364;-88
2022/12/15 01:38:48;;;;;;;15.10;14.40;;;6.40;99.90;;;;;;4241474;28;20441;-88
2022/12/15 01:41:14;;;;;;;15.55;14.68;;;6.40;99.90;;;;;;4255720;28;20062;-88
2022/12/15 01:43:37;;;;;;;16.90;15.73;;;6.40;99.90;;;;;;4256894;28;20050;-88
2022/12/15 01:46:14;;;;;;;17.25;16.15;;;6.40;99.90;;;;;;4240451;28;20103;-88
2022/12/15 01:48:41;;;;;;;18.08;16.77;;;6.40;99.90;;;;;;4240937;28;20111;-88
2022/12/15 01:51:20;;;;;;;14.52;13.82;;;6.40;99.90;;;;;;4231902;28;20114;-87
2022/12/15 01:53:53;;;;;;;15.05;14.25;;;6.40;99.90;;;;;;4252735;28;20242;-88
2022/12/15 01:56:14;;;;;;;;;;;6.50;99.90;;;;;;4251674;28;20030;-87
2022/12/15 01:58:35;;;;;;;12.93;12.30;;;6.50;99.90;;;;;;4254509;27;19923;-87
2022/12/15 02:00:55;;;;;;;11.02;10.30;;;6.50;99.90;;;;;;4239007;28;20135;-88
2022/12/15 02:03:16;;;;;;;10.63;10.30;;;6.60;99.90;;;;;;4240419;28;20051;-88
2022/12/15 02:05:37;;;;;;;10.10;9.82;;;6.60;99.90;;;;;;4256610;28;20042;-88
2022/12/15 02:07:58;;;;;;;9.25;9.13;;;6.60;99.90;;;;;;4240520;28;20050;-88
2022/12/15 02:10:23;;;;;;;9.18;8.88;;;6.70;99.90;;;;;;4256096;28;20046;-88
2022/12/15 02:13:17;;;;;;;9.48;9.27;;;6.70;99.90;;;;;;4244452;28;20166;-88
2022/12/15 02:16:09;;;;;;;9.40;9.20;;;6.70;99.90;;;;;;4256477;28;20077;-88
2022/12/15 02:18:59;;;;;;;8.05;7.82;;;6.70;99.90;;;;;;4255522;28;20073;-88
2022/12/15 02:21:56;;;;;;;7.20;7.00;;;6.80;99.90;;;;;;4255469;28;20092;-88
2022/12/15 02:24:37;;;;;;;8.45;8.18;;;6.80;99.90;;;;;;4205188;28;20050;-88
2022/12/15 02:27:00;;;;;;;9.30;9.00;;;6.80;99.90;;;;;;4240694;28;20082;-88
2022/12/15 02:29:51;;;;;;;7.90;7.80;;;6.80;99.90;;;;;;4240864;28;20388;-88
2022/12/15 02:32:26;;;;;;;7.40;7.30;;;6.80;99.90;;;;;;4255826;28;20052;-88
2022/12/15 02:35:00;;;;;;;7.68;7.57;;;6.90;99.90;;;;;;4255937;28;20365;-88
2022/12/15 02:37:31;;;;;;;6.13;6.03;;;6.80;99.90;;;;;;4255390;28;20076;-88
2022/12/15 02:39:51;;;;;;;7.13;6.82;;;6.90;99.90;;;;;;4254628;28;20046;-88
2022/12/15 02:42:10;;;;;;;7.72;7.53;;;6.90;99.90;;;;;;4253817;28;20099;-88
2022/12/15 02:44:43;;;;;;;7.72;7.55;;;7.00;99.90;;;;;;4240114;28;20062;-88
2022/12/15 02:47:23;;;;;;;7.55;7.45;;;6.90;99.90;;;;;;4254200;28;20080;-88
2022/12/15 02:50:11;;;;;;;7.88;7.68;;;6.90;99.90;;;;;;4240484;28;20058;-88
2022/12/15 02:52:54;;;;;;;7.88;7.78;;;6.90;99.90;;;;;;4242328;28;20042;-88
2022/12/15 02:55:32;;;;;;;7.72;7.63;;;6.80;99.90;;;;;;4234526;28;20082;-88
2022/12/15 02:58:01;;;;;;;7.47;7.38;;;6.90;99.90;;;;;;4240298;28;20077;-88
2022/12/15 03:00:21;;;;;;;6.60;6.50;;;6.80;99.90;;;;;;4254357;28;20062;-88
2022/12/15 03:02:48;;;;;;;6.97;6.88;;;6.90;99.90;;;;;;4240455;28;20107;-88
2022/12/15 03:05:11;;;;;;;8.73;8.63;;;6.90;99.90;;;;;;4240279;28;20063;-88
2022/12/15 03:07:31;;;;;;;9.20;9.00;;;6.80;99.90;;;;;;4255887;28;20034;-88
2022/12/15 03:09:51;;;;;;;10.63;10.23;;;6.80;99.90;;;;;;4239618;28;20046;-88
2022/12/15 03:12:11;;;;;;;11.20;10.82;;;6.70;99.90;;;;;;4240408;28;20106;-88
2022/12/15 03:14:31;;;;;;;10.82;10.43;;;6.70;99.90;;;;;;4255125;28;20245;-88
2022/12/15 03:16:53;;;;;;;10.18;9.82;;;6.60;99.90;;;;;;4239296;28;20054;-88
2022/12/15 03:19:13;;;;;;;9.50;9.30;;;6.60;99.90;;;;;;4255503;28;20103;-88
2022/12/15 03:21:33;;;;;;;9.73;9.43;;;6.70;99.90;;;;;;4254814;28;20272;-88
2022/12/15 03:23:53;;;;;;;9.23;8.93;;;6.70;99.90;;;;;;4238691;28;20078;-88
2022/12/15 03:26:13;;;;;;;8.80;8.60;;;6.70;99.90;;;;;;4238295;28;20077;-88
2022/12/15 03:28:33;;;;;;;9.48;9.27;;;6.80;99.90;;;;;;4240162;28;20149;-88
2022/12/15 03:30:53;;;;;;;9.23;8.82;;;6.80;99.90;;;;;;4239252;28;20101;-89
2022/12/15 03:33:12;;;;;;;9.93;9.73;;;6.80;99.90;;;;;;4255318;28;20294;-88
2022/12/15 03:35:33;;;;;;;9.63;9.32;;;6.80;99.90;;;;;;4255042;27;20417;-88
2022/12/15 03:37:53;;;;;;;9.02;8.82;;;6.70;99.90;;;;;;4242907;28;20318;-88
2022/12/15 03:40:13;;;;;;;10.02;9.75;;;6.70;99.90;;;;;;4243006;28;20065;-88
2022/12/15 03:42:48;;;;;;;10.15;9.85;;;6.70;99.90;;;;;;4257051;28;20234;-88
2022/12/15 03:45:08;;;;;;;9.25;9.05;;;6.70;99.90;;;;;;4258187;28;20046;-88
2022/12/15 03:47:28;;;;;;;10.85;10.25;;;6.70;99.90;;;;;;4257494;28;20053;-88
2022/12/15 03:49:47;;;;;;;11.60;11.15;;;6.60;99.90;;;;;;4256997;28;20046;-88
2022/12/15 03:52:07;;;;;;;10.27;9.98;;;6.60;99.90;;;;;;4257721;28;20050;-88
2022/12/15 03:54:27;;;;;;;11.15;10.65;;;6.60;99.90;;;;;;4241421;28;20419;-88
2022/12/15 03:56:47;;;;;;;10.82;10.27;;;6.60;99.90;;;;;;4258314;28;20106;-89
2022/12/15 03:59:06;;;;;;;11.18;10.70;;;6.60;99.90;;;;;;4257012;28;20235;-88
2022/12/15 04:01:34;;;;;;;10.43;10.02;;;6.60;99.90;;;;;;4242666;28;20087;-88
2022/12/15 04:03:55;;;;;;;10.50;9.93;;;6.60;99.90;;;;;;4242838;28;20073;-88
2022/12/15 04:06:20;;;;;;;11.57;10.93;;;6.60;99.90;;;;;;4242447;28;20041;-89
2022/12/15 04:08:40;;;;;;;9.80;9.55;;;6.60;99.90;;;;;;4255913;28;20050;-89
2022/12/15 04:11:00;;;;;;;11.32;11.02;;;6.60;99.90;;;;;;4257877;28;20280;-88
2022/12/15 04:13:19;;;;;;;10.10;9.88;;;6.60;99.90;;;;;;4257887;28;20046;-88
2022/12/15 04:15:39;;;;;;;11.27;10.88;;;6.60;99.90;;;;;;4242629;28;20242;-88
2022/12/15 04:18:01;;;;;;;10.55;10.02;;;6.60;99.90;;;;;;4242739;28;20051;-88
2022/12/15 04:20:22;;;;;;;10.52;10.25;;;6.60;99.90;;;;;;4241035;28;20255;-89
2022/12/15 04:22:43;;;;;;;12.10;11.70;;;6.60;99.90;;;;;;4257896;28;20155;-88
2022/12/15 05:33:51;;;;;;;15.63;14.45;;;6.60;99.90;;;;;;4255702;28;20090;-88
2022/12/15 05:36:11;;;;;;;16.40;15.20;;;6.60;99.90;;;;;;4254235;28;20058;-88
2022/12/15 05:38:31;;;;;;;15.18;14.10;;;6.60;99.90;;;;;;4256884;28;20084;-89
2022/12/15 05:40:50;;;;;;;13.52;12.82;;;6.60;99.90;;;;;;4256815;28;20046;-89
2022/12/15 05:43:10;;;;;;;16.33;15.00;;;6.60;99.90;;;;;;4256803;28;20092;-89
2022/12/15 05:45:30;;;;;;;13.38;12.65;;;6.60;99.90;;;;;;4240928;28;20097;-89
2022/12/15 05:47:53;;;;;;;14.48;13.60;;;6.60;99.90;;;;;;4256951;28;20444;-89
2022/12/15 05:50:13;;;;;;;11.90;11.20;;;6.70;99.90;;;;;;4242198;28;20054;-88
2022/12/15 05:52:33;;;;;;;10.63;10.13;;;6.70;99.90;;;;;;4236992;28;20112;-89
2022/12/15 05:54:53;;;;;;;11.23;10.55;;;6.80;99.90;;;;;;4253174;27;20074;-88
2022/12/15 05:57:13;;;;;;;10.85;10.52;;;6.90;99.90;;;;;;4269557;27;20042;-87
2022/12/15 05:59:33;;;;;;;13.68;12.82;;;7.00;99.90;;;;;;4265327;27;20034;-88
2022/12/15 06:01:52;;;;;;;11.48;11.07;;;7.00;99.90;;;;;;4241273;28;20068;-88
2022/12/15 06:04:13;;;;;;;11.25;10.75;;;7.00;99.90;;;;;;4257086;28;20046;-88
2022/12/15 06:06:33;;;;;;;11.35;10.93;;;6.90;99.90;;;;;;4240926;28;20058;-88
2022/12/15 06:08:52;;;;;;;11.05;10.48;;;7.00;99.90;;;;;;4241066;28;20084;-88
2022/12/15 06:11:14;;;;;;;10.45;10.05;;;7.00;99.90;;;;;;4256396;28;20050;-89
2022/12/15 06:13:34;;;;;;;12.13;11.63;;;7.00;99.90;;;;;;4255962;28;20365;-88
2022/12/15 06:16:00;;;;;;;10.07;9.77;;;7.00;99.90;;;;;;4241092;28;20074;-88
2022/12/15 06:18:20;;;;;;;11.40;11.00;;;7.00;99.90;;;;;;4240915;28;20074;-88
2022/12/15 06:20:40;;;;;;;12.00;11.38;;;7.00;99.90;;;;;;4255423;28;20088;-89
2022/12/15 06:23:00;;;;;;;12.88;12.25;;;7.10;99.90;;;;;;4256312;28;20047;-89
2022/12/15 06:25:20;;;;;;;13.13;12.52;;;7.00;99.90;;;;;;4240102;28;20382;-88
2022/12/15 06:27:40;;;;;;;12.40;11.95;;;7.00;99.90;;;;;;4240832;28;20096;-88
2022/12/15 06:30:00;;;;;;;12.32;11.93;;;7.00;99.90;;;;;;4240764;28;20076;-88
2022/12/15 06:32:20;;;;;;;12.10;11.70;;;7.00;99.90;;;;;;4254710;28;20046;-89
2022/12/15 06:34:40;;;;;;;12.57;11.98;;;7.10;99.90;;;;;;4240793;28;20051;-89
2022/12/15 06:37:00;;;;;;;12.63;12.23;;;7.10;99.90;;;;;;4254018;28;20050;-88
2022/12/15 06:39:20;;;;;;;12.82;12.32;;;7.10;99.90;;;;;;4256047;28;20058;-89
2022/12/15 06:41:41;;;;;;;12.23;11.82;;;7.10;99.90;;;;;;4239663;28;20339;-88
2022/12/15 06:44:01;;;;;;;16.65;15.55;;;7.20;99.90;;;;;;4254557;28;20051;-89
2022/12/15 06:46:21;;;;;;;12.57;12.07;;;7.10;99.90;;;;;;4240706;28;20050;-89
2022/12/15 06:48:43;;;;;;;12.15;11.65;;;7.10;99.90;;;;;;4239885;28;20418;-89
2022/12/15 06:51:05;;;;;;;16.15;15.15;;;7.10;99.90;;;;;;4240740;28;20050;-89
2022/12/15 06:53:25;;;;;;;16.80;15.45;;;7.10;99.90;;;;;;4240757;28;20385;-88
2022/12/15 06:55:45;;;;;;;16.95;15.95;;;7.10;99.90;;;;;;4240115;28;20085;-87
2022/12/15 06:58:05;;;;;;;14.25;13.43;;;7.10;99.90;;;;;;4255264;28;20077;-87
2022/12/15 07:00:26;;;;;;;16.65;15.57;;;7.10;99.90;;;;;;4239240;28;20051;-87
2022/12/15 07:02:46;;;;;;;14.02;13.13;;;7.10;99.90;;;;;;4239707;28;20054;-87
2022/12/15 07:05:09;;;;;;;14.52;13.52;;;7.10;99.90;;;;;;4254272;28;20106;-87
2022/12/15 07:07:29;;;;;;;14.15;13.32;;;7.10;99.90;;;;;;4238097;28;20307;-87
2022/12/15 07:09:48;;;;;;;12.73;12.00;;;7.20;99.90;;;;;;4240416;27;20043;-87
2022/12/15 07:12:11;;;;;;;13.77;12.98;;;7.20;99.90;;;;;;4257107;28;20046;-87
2022/12/15 07:14:31;;;;;;;10.95;10.65;;;7.20;99.90;;;;;;4257159;28;20054;-87
2022/12/15 07:16:51;;;;;;;12.85;12.00;;;7.20;99.90;;;;;;4242227;28;20150;-87
2022/12/15 07:19:11;;;;;;;11.40;10.90;;;7.30;99.90;;;;;;4242957;28;20035;-87
2022/12/15 07:21:31;;;;;;;10.05;9.70;;;7.30;99.90;;;;;;4258636;28;20245;-87
2022/12/15 07:23:52;;;;;;;12.25;11.63;;;7.40;99.90;;;;;;4242582;28;20043;-87
2022/12/15 07:26:16;;;;;;;9.32;9.13;;;7.40;99.90;;;;;;4256800;28;20233;-87
2022/12/15 07:28:37;;;;;;;11.02;10.68;;;7.30;99.90;;;;;;4241896;28;20047;-87
2022/12/15 07:31:06;;;;;;;13.25;12.65;;;7.40;99.90;;;;;;4242371;28;20062;-87
2022/12/15 07:33:25;;;;;;;16.55;15.40;;;7.30;99.90;;;;;;4242196;28;20066;-87
2022/12/15 07:35:55;;;;;;;15.52;14.52;;;7.30;99.90;;;;;;4242722;28;20050;-87
2022/12/15 07:38:16;;;;;;;16.42;15.18;;;7.20;99.90;;;;;;4240834;28;20046;-87
2022/12/15 07:40:36;;;;;;;16.20;15.02;;;7.20;99.90;;;;;;4258462;28;20047;-87
2022/12/15 07:42:56;;;;;;;15.77;14.75;;;7.20;99.90;;;;;;4256050;28;20277;-86
2022/12/15 07:45:16;;;;;;;15.05;13.98;;;7.20;99.90;;;;;;4258337;28;20115;-87
2022/12/15 07:47:36;;;;;;;14.32;13.45;;;7.30;99.90;;;;;;4257737;28;20050;-87
2022/12/15 07:49:56;;;;;;;14.68;13.65;;;7.30;99.90;;;;;;4257473;28;20116;-87
2022/12/15 07:52:16;;;;;;;15.95;14.75;;;7.30;99.90;;;;;;4256999;28;20079;-87
2022/12/15 07:54:36;;;;;;;15.63;14.52;;;7.30;99.90;;;;;;4242287;28;20403;-87
2022/12/15 07:56:56;;;;;;;17.67;16.58;;;7.30;99.90;;;;;;4242654;28;20050;-87
2022/12/15 07:59:16;;;;;;;16.35;15.18;;;7.30;99.90;;;;;;4242820;28;20046;-87
2022/12/15 08:01:35;;;;;;;18.70;17.25;;;7.20;99.90;;;;;;4257336;28;20037;-87
2022/12/15 08:03:56;;;;;;;23.52;21.40;;;7.20;99.90;;;;;;4241297;28;20161;-87
2022/12/15 08:06:16;;;;;;;19.25;17.80;;;7.30;99.90;;;;;;4240650;28;20111;-87
2022/12/15 08:08:36;;;;;;;17.88;16.27;;;7.30;99.90;;;;;;4242707;28;20051;-87
2022/12/15 08:10:56;;;;;;;18.92;17.17;;;7.20;99.90;;;;;;4257980;28;20353;-87
2022/12/15 08:13:16;;;;;;;19.15;17.45;;;7.30;99.90;;;;;;4257988;28;20041;-86
2022/12/15 08:15:56;;;;;;;19.83;18.17;;;7.30;99.90;;;;;;4245603;28;20395;-87
2022/12/15 08:18:16;;;;;;;18.45;17.10;;;7.40;99.90;;;;;;4242217;28;20057;-87
2022/12/15 08:20:35;;;;;;;18.77;17.55;;;7.40;99.90;;;;;;4242546;28;20120;-87
2022/12/15 08:22:56;;;;;;;20.65;18.98;;;7.40;99.90;;;;;;4257009;27;20054;-86
2022/12/15 08:25:15;;;;;;;21.45;19.63;;;7.40;99.90;;;;;;4236535;28;20055;-86
2022/12/15 08:27:35;;;;;;;22.83;20.55;;;7.40;99.90;;;;;;4242446;28;20234;-86
2022/12/15 08:29:55;;;;;;;19.33;17.80;;;7.50;99.90;;;;;;4242507;28;20050;-87
2022/12/15 08:32:15;;;;;;;17.52;16.40;;;7.50;99.90;;;;;;4242117;28;20054;-87
2022/12/15 08:34:35;;;;;;;19.52;18.23;;;7.50;99.90;;;;;;4241321;28;20061;-87
2022/12/15 08:36:55;;;;;;;19.20;18.00;;;7.50;99.90;;;;;;4241715;28;20369;-86
2022/12/15 08:39:15;;;;;;;19.83;18.42;;;7.50;99.90;;;;;;4255714;28;20050;-86
2022/12/15 08:41:35;;;;;;;18.77;17.27;;;7.50;99.90;;;;;;4242299;28;20059;-87
2022/12/15 08:43:57;;;;;;;18.15;16.92;;;7.50;99.90;;;;;;4242261;28;20302;-86
2022/12/15 08:46:22;;;;;;;19.70;18.17;;;7.50;99.90;;;;;;4257324;28;20222;-87
2022/12/15 08:48:43;;;;;;;16.55;15.48;;;7.50;99.90;;;;;;4241210;28;20453;-87
2022/12/15 08:51:03;;;;;;;16.00;15.05;;;7.60;99.90;;;;;;4241863;28;20044;-86
2022/12/15 08:53:22;;;;;;;17.15;15.55;;;7.60;99.90;;;;;;4257394;28;20049;-87
2022/12/15 08:55:51;;;;;;;17.15;15.68;;;7.60;99.90;;;;;;4255729;28;20039;-86
2022/12/15 08:58:12;;;;;;;18.55;17.13;;;7.60;99.90;;;;;;4256295;28;20134;-86
2022/12/15 09:00:32;;;;;;;18.88;17.17;;;7.60;99.90;;;;;;4241860;28;20078;-86
2022/12/15 09:02:52;;;;;;;18.65;17.33;;;7.50;99.90;;;;;;4241839;28;20081;-86
2022/12/15 09:05:13;;;;;;;18.48;17.00;;;7.60;99.90;;;;;;4241787;28;20111;-86
2022/12/15 09:07:33;;;;;;;19.45;17.95;;;7.60;99.90;;;;;;4256514;28;20046;-86
2022/12/15 09:09:53;;;;;;;17.92;16.73;;;7.60;99.90;;;;;;4256224;28;20110;-86
2022/12/15 09:12:13;;;;;;;17.25;15.88;;;7.60;99.90;;;;;;4241637;28;20081;-86
2022/12/15 09:14:32;;;;;;;17.95;16.55;;;7.60;99.90;;;;;;4240547;28;20089;-86
2022/12/15 09:16:53;;;;;;;16.95;15.75;;;7.60;99.90;;;;;;4241742;28;20046;-86
2022/12/15 09:19:13;;;;;;;19.33;17.73;;;7.60;99.90;;;;;;4241623;28;20243;-86
2022/12/15 09:21:33;;;;;;;18.50;17.05;;;7.60;99.90;;;;;;4255806;28;20086;-86
2022/12/15 09:23:58;;;;;;;16.13;15.02;;;7.60;99.90;;;;;;4241204;28;20041;-85
2022/12/15 09:26:22;;;;;;;17.92;16.52;;;7.70;99.90;;;;;;4241967;28;20051;-85
2022/12/15 09:28:43;;;;;;;15.32;14.45;;;7.70;99.90;;;;;;4241614;28;20056;-85
2022/12/15 09:31:05;;;;;;;17.30;15.98;;;7.70;99.90;;;;;;4241525;28;20399;-85
2022/12/15 09:33:25;;;;;;;16.63;15.43;;;7.70;99.90;;;;;;4255527;27;20250;-85
2022/12/15 09:35:51;;;;;;;18.75;17.25;;;7.70;99.90;;;;;;4241518;28;20092;-86
2022/12/15 09:38:11;;;;;;;17.73;16.35;;;7.70;99.90;;;;;;4256284;28;20038;-85
2022/12/15 09:40:32;;;;;;;17.33;15.80;;;7.70;99.90;;;;;;4256227;28;20324;-85
2022/12/15 09:42:55;;;;;;;16.55;15.30;;;7.80;99.90;;;;;;4254801;28;20419;-85
2022/12/15 09:45:42;;;;;;;16.55;15.40;;;7.80;99.90;;;;;;4256754;28;20046;-85
2022/12/15 09:48:08;;;;;;;16.70;15.30;;;7.90;99.90;;;;;;4239791;28;20136;-86
2022/12/15 09:50:37;;;;;;;13.80;13.05;;;8.00;99.90;;;;;;4256043;28;20046;-85
2022/12/15 09:52:59;;;;;;;13.38;12.68;;;8.00;99.90;;;;;;4253655;28;20057;-85
2022/12/15 09:55:27;;;;;;;14.55;13.27;;;8.10;99.90;;;;;;4242343;28;20047;-85
2022/12/15 09:57:57;;;;;;;19.40;17.48;;;8.10;99.90;;;;;;4263563;27;20092;-86
2022/12/15 10:00:20;;;;;;;15.00;13.88;;;8.30;99.90;;;;;;4251979;27;20038;-86
2022/12/15 10:03:08;;;;;;;11.93;11.32;;;8.30;99.90;;;;;;4264754;27;20054;-85
2022/12/15 10:05:47;;;;;;;10.75;10.35;;;8.40;99.90;;;;;;4241492;28;20054;-85
2022/12/15 10:08:44;;;;;;;12.07;11.15;;;8.40;99.90;;;;;;4255270;28;20088;-85
2022/12/15 10:11:12;;;;;;;10.68;10.18;;;8.50;99.90;;;;;;4256233;28;20073;-85
2022/12/15 10:13:52;;;;;;;11.40;10.07;;;8.60;99.90;;;;;;4256336;28;20042;-85
2022/12/15 10:16:21;;;;;;;12.73;11.85;;;8.70;99.90;;;;;;4258743;27;20049;-85
2022/12/15 10:19:05;;;;;;;10.68;9.73;;;8.60;99.90;;;;;;4255734;28;20042;-85
2022/12/15 10:21:27;;;;;;;;;;;8.60;99.90;;;;;;4256477;28;20045;-85
2022/12/15 10:23:48;;;;;;;8.57;8.38;;;8.60;99.90;;;;;;4240734;28;20220;-85
2022/12/15 10:26:22;;;;;;;;;;;8.60;99.90;;;;;;4256834;28;20053;-85
2022/12/15 10:29:01;;;;;;;11.82;11.25;;;8.60;99.90;;;;;;4255500;28;19937;-85
2022/12/15 10:31:33;;;;;;;10.63;9.88;;;8.70;99.90;;;;;;4255289;28;20065;-86
2022/12/15 10:34:04;;;;;;;9.18;8.80;;;8.80;99.90;;;;;;4256115;28;20160;-87
2022/12/15 10:36:25;;;;;;;8.05;7.70;;;8.80;99.90;;;;;;4255706;28;20046;-86
2022/12/15 10:38:46;;;;;;;8.65;8.25;;;8.80;99.90;;;;;;4256241;28;20418;-86
2022/12/15 10:41:13;;;;;;;5.90;5.70;;;8.90;99.90;;;;;;4256142;28;20227;-86
2022/12/15 10:43:40;;;;;;;7.50;7.13;;;8.90;99.90;;;;;;4255835;28;20356;-87
2022/12/15 10:46:13;;;;;;;7.30;7.00;;;8.80;99.90;;;;;;4257796;27;20038;-87
2022/12/15 10:48:35;;;;;;;7.53;7.32;;;8.90;99.90;;;;;;4243905;28;20041;-87
2022/12/15 10:51:21;;;;;;;6.75;6.65;;;8.90;99.90;;;;;;4258070;28;20073;-86
2022/12/15 10:53:47;;;;;;;6.40;6.15;;;9.00;99.90;;;;;;4248760;27;20077;-87
2022/12/15 10:56:28;;;;;;;5.47;5.38;;;9.00;99.90;;;;;;4257939;28;20269;-87
2022/12/15 10:58:58;;;;;;;4.60;4.50;;;9.00;99.90;;;;;;4258126;28;20055;-87
2022/12/15 11:01:27;;;;;;;4.75;4.65;;;9.00;99.90;;;;;;4242983;28;20341;-87
2022/12/15 11:03:50;;;;;;;5.55;5.35;;;9.10;99.90;;;;;;4257550;28;20095;-86
2022/12/15 11:06:16;;;;;;;;;;;9.10;99.90;;;;;;4257727;28;20037;-86
2022/12/15 11:08:36;;;;;;;5.35;5.18;;;9.10;99.90;;;;;;4241866;28;19938;-86
2022/12/15 11:13:35;;;;;;;5.20;5.10;;;9.20;99.90;;;;;;4258536;28;20045;-86
2022/12/15 11:16:18;;;;;;;6.55;6.35;;;9.20;99.90;;;;;;4258126;28;20054;-86
2022/12/15 11:18:43;;;;;;;5.38;5.22;;;9.20;99.90;;;;;;4241408;28;20055;-87
2022/12/15 11:21:21;;;;;;;5.10;5.00;;;9.30;99.90;;;;;;4242989;28;20046;-86
2022/12/15 11:23:44;;;;;;;8.85;8.25;;;9.30;99.90;;;;;;4236969;28;20050;-86
2022/12/15 11:26:17;;;;;;;6.55;6.35;;;9.40;99.90;;;;;;4246127;28;20057;-87
2022/12/15 11:28:47;;;;;;;6.13;5.82;;;9.40;99.90;;;;;;4258490;28;20050;-86
2022/12/15 11:31:24;;;;;;;5.78;5.68;;;9.40;99.90;;;;;;4256709;28;20088;-86
2022/12/15 11:33:44;;;;;;;4.82;4.53;;;9.60;99.90;;;;;;4258110;27;20050;-86
2022/12/15 11:36:29;;;;;;;5.35;5.25;;;9.60;99.90;;;;;;4257423;28;20051;-86
2022/12/15 11:39:02;;;;;;;5.57;5.47;;;9.60;99.90;;;;;;4258550;28;20043;-86
2022/12/15 11:41:26;;;;;;;;;;;9.60;99.90;;;;;;4258243;28;20145;-86
2022/12/15 11:44:04;;;;;;;6.82;6.55;;;9.60;99.90;;;;;;4246338;28;19968;-85
2022/12/15 11:46:28;;;;;;;5.28;5.18;;;9.70;99.90;;;;;;4257935;28;20227;-85
2022/12/15 11:49:06;;;;;;;6.13;5.80;;;9.70;99.90;;;;;;4255532;28;20050;-85
2022/12/15 11:51:48;;;;;;;8.30;7.72;;;9.80;99.90;;;;;;4257822;28;20034;-86
2022/12/15 11:54:18;;;;;;;7.47;7.18;;;9.90;99.90;;;;;;4257990;28;20042;-86
2022/12/15 11:57:08;;;;;;;12.13;7.20;;;9.90;99.90;;;;;;4256517;27;20046;-85
2022/12/15 12:00:04;;;;;;;4.22;4.13;;;10.00;99.90;;;;;;4230390;28;20043;-85
2022/12/15 12:02:34;;;;;;;4.28;4.18;;;10.10;99.90;;;;;;4227393;28;20051;-85
2022/12/15 12:05:31;;;;;;;4.70;4.53;;;10.10;99.90;;;;;;4258046;28;20046;-85
2022/12/15 12:08:12;;;;;;;5.28;5.18;;;10.10;99.90;;;;;;4258154;28;20037;-85
2022/12/15 12:11:01;;;;;;;5.15;5.00;;;10.10;99.90;;;;;;4241714;28;20400;-85
2022/12/15 12:13:29;;;;;;;4.45;4.32;;;10.10;99.90;;;;;;4238211;28;20279;-85
2022/12/15 12:16:21;;;;;;;5.72;5.63;;;10.20;99.90;;;;;;4257936;28;20097;-85
2022/12/15 12:18:46;;;;;;;6.68;6.47;;;10.20;99.90;;;;;;4257626;28;20069;-85
2022/12/15 12:21:12;;;;;;;5.15;4.95;;;10.20;99.90;;;;;;4257972;28;20372;-85
2022/12/15 12:23:59;;;;;;;5.45;5.25;;;10.20;99.90;;;;;;4242310;28;20046;-85
2022/12/15 12:26:36;;;;;;;3.53;3.42;;;10.20;99.90;;;;;;4257105;28;20061;-85
2022/12/15 12:29:31;;;;;;;3.50;3.40;;;10.20;99.90;;;;;;4257335;28;20046;-85
2022/12/15 12:32:13;;;;;;;3.78;3.67;;;10.20;99.90;;;;;;4257832;28;20034;-86
2022/12/15 12:34:36;;;;;;;4.70;4.60;;;10.20;99.90;;;;;;4254871;28;20078;-85
2022/12/15 12:37:11;;;;;;;4.13;4.03;;;10.20;99.90;;;;;;4257809;28;20233;-85
2022/12/15 12:39:31;;;;;;;3.78;3.67;;;10.20;99.90;;;;;;4256400;28;20045;-86
2022/12/15 12:42:08;;;;;;;3.72;3.55;;;10.10;99.90;;;;;;4257707;28;20122;-86
2022/12/15 12:44:33;;;;;;;4.20;4.10;;;10.10;99.90;;;;;;4242292;28;20042;-86
2022/12/15 12:46:55;;;;;;;4.78;4.68;;;10.10;99.90;;;;;;4242126;28;20140;-87
2022/12/15 12:49:19;;;;;;;5.15;4.80;;;10.10;99.90;;;;;;4257556;28;20222;-87
2022/12/15 12:51:55;;;;;;;4.93;4.65;;;10.00;99.90;;;;;;4245897;28;20054;-87
2022/12/15 12:54:33;;;;;;;7.10;6.70;;;9.90;99.90;;;;;;4240738;28;20046;-87
2022/12/15 12:56:53;;;;;;;8.63;8.20;;;9.80;99.90;;;;;;4241486;28;20035;-87
2022/12/15 12:59:28;;;;;;;11.82;11.02;;;9.70;99.90;;;;;;4238673;28;20108;-87
2022/12/15 13:01:48;;;;;;;9.88;9.30;;;9.70;99.90;;;;;;4257519;28;20049;-87
2022/12/15 13:04:38;;;;;;;10.82;10.25;;;9.70;99.90;;;;;;4242035;28;20057;-87
2022/12/15 13:07:02;;;;;;;7.40;7.15;;;9.70;99.90;;;;;;4242400;28;20119;-87
2022/12/15 13:09:24;;;;;;;7.80;7.50;;;9.70;99.90;;;;;;4241494;28;20429;-87
2022/12/15 13:11:52;;;;;;;10.32;9.45;;;9.60;99.90;;;;;;4241147;28;20076;-87
2022/12/15 13:14:16;;;;;;;19.83;14.32;;;9.60;99.90;;;;;;4241659;28;20111;-87
2022/12/15 13:16:54;;;;;;;11.93;10.93;;;9.60;99.90;;;;;;4241986;28;20091;-87
2022/12/15 13:19:52;;;;;;;9.85;9.02;;;9.60;99.90;;;;;;4256749;28;20064;-87
2022/12/15 13:22:26;;;;;;;9.73;9.40;;;9.60;99.90;;;;;;4256501;28;20238;-87
2022/12/15 13:24:49;;;;;;;13.80;12.75;;;9.60;99.90;;;;;;4240417;28;20050;-87
2022/12/15 13:27:18;;;;;;;25.63;21.35;;;9.60;99.90;;;;;;4241858;28;20070;-87
2022/12/15 13:29:57;;;;;;;24.83;22.20;;;9.50;99.90;;;;;;4241195;28;20294;-87
2022/12/15 13:32:37;;;;;;;22.70;20.60;;;9.50;99.90;;;;;;4241540;28;20050;-87
2022/12/15 13:35:11;;;;;;;8.05;7.68;;;9.50;99.90;;;;;;4256649;27;20038;-87
2022/12/15 13:37:50;;;;;;;;;;;9.50;99.90;;;;;;4257052;28;20038;-87
2022/12/15 13:40:33;;;;;;;5.05;4.95;;;9.50;99.90;;;;;;4232368;28;19958;-87
2022/12/15 13:42:57;;;;;;;;;;;9.50;99.90;;;;;;4241006;28;20084;-87
2022/12/15 13:45:40;;;;;;;6.10;6.00;;;9.50;99.90;;;;;;4241383;28;19957;-87
2022/12/15 13:48:04;;;;;;;6.07;5.97;;;9.40;99.90;;;;;;4240347;28;20089;-86
2022/12/15 13:50:37;;;;;;;7.53;6.95;;;9.40;99.90;;;;;;4255867;28;20398;-87
2022/12/15 13:53:02;;;;;;;4.57;4.38;;;9.30;99.90;;;;;;4255990;28;20301;-87
2022/12/15 13:55:51;;;;;;;4.43;4.28;;;9.40;99.90;;;;;;4255795;28;20075;-87
2022/12/15 13:58:20;;;;;;;3.63;3.63;;;9.30;99.90;;;;;;4255581;28;20115;-87
2022/12/15 14:00:51;;;;;;;3.00;3.00;;;9.30;99.90;;;;;;4255570;28;20376;-87
2022/12/15 14:03:11;;;;;;;2.42;2.42;;;9.30;99.90;;;;;;4256194;28;20034;-87
2022/12/15 14:05:31;;;;;;;2.78;2.78;;;9.30;99.90;;;;;;4256594;28;20054;-88
2022/12/15 14:07:56;;;;;;;3.17;3.03;;;9.30;99.90;;;;;;4240270;28;20050;-88
2022/12/15 14:10:20;;;;;;;3.88;3.78;;;9.30;99.90;;;;;;4241025;28;20039;-88
2022/12/15 14:12:39;;;;;;;4.57;4.47;;;9.30;99.90;;;;;;4256492;28;20142;-87
2022/12/15 14:15:00;;;;;;;5.68;5.47;;;9.20;99.90;;;;;;4256345;28;20102;-88
2022/12/15 14:17:20;;;;;;;5.63;5.53;;;9.30;99.90;;;;;;4253750;28;20046;-88
2022/12/15 14:19:45;;;;;;;3.22;3.22;;;9.30;99.90;;;;;;4240594;28;20054;-88
2022/12/15 14:22:27;;;;;;;10.98;3.92;;;9.30;99.90;;;;;;4240025;28;20265;-87
2022/12/15 14:24:51;;;;;;;8.82;3.65;;;9.30;99.90;;;;;;4257277;28;20041;-87
2022/12/15 14:27:32;;;;;;;2.92;2.83;;;9.30;99.90;;;;;;4257461;28;20234;-87
2022/12/15 14:30:13;;;;;;;1.75;1.67;;;9.30;99.90;;;;;;4252082;27;20049;-87
2022/12/15 14:32:34;;;;;;;7.40;6.38;;;9.30;99.90;;;;;;4255830;28;20074;-88
2022/12/15 14:34:54;;;;;;;4.28;4.18;;;9.30;99.90;;;;;;4269218;27;20076;-87
2022/12/15 14:37:19;;;;;;;4.13;3.90;;;9.20;99.90;;;;;;4243014;28;20098;-87
2022/12/15 14:39:43;;;;;;;3.10;2.90;;;9.20;99.90;;;;;;4244161;28;20080;-87
2022/12/15 14:42:06;;;;;;;4.55;4.25;;;9.20;99.90;;;;;;4256561;28;20038;-87
2022/12/15 14:44:38;;;;;;;9.57;9.10;;;9.20;99.90;;;;;;4241043;28;20058;-87
2022/12/15 14:47:02;;;;;;;8.68;8.27;;;9.20;99.90;;;;;;4255790;28;20399;-87
2022/12/15 14:49:27;;;;;;;19.00;13.80;;;9.10;99.90;;;;;;4240891;28;20046;-87
2022/12/15 14:51:51;;;;;;;27.27;19.73;;;9.20;99.90;;;;;;4239164;28;20072;-87
2022/12/15 14:54:36;;;;;;;20.40;18.30;;;9.10;99.90;;;;;;4255794;28;20070;-87
2022/12/15 14:57:21;;;;;;;13.32;11.95;;;9.10;99.90;;;;;;4254939;28;20442;-87
2022/12/15 14:59:44;;;;;;;5.80;5.63;;;9.10;99.90;;;;;;4254392;28;20038;-86
2022/12/15 15:02:39;;;;;;;5.53;5.43;;;9.10;99.90;;;;;;4240237;28;20077;-86
2022/12/15 15:05:03;;;;;;;5.60;5.28;;;9.20;99.90;;;;;;4156311;28;20049;-87